sensor_id;sensor_type;location;lat;lon;timestamp;temperature;humidity
19813;DHT22;10066;48.108;11.448;2022-09-17T00:00:37;10.70;99.90
19813;DHT22;10066;48.108;11.448;2022-09-17T00:03:05;10.70;99.90
19813;DHT22;10066;48.108;11.448;2022-09-17T00:05:33;10.70;99.90
19813;DHT22;10066;48.108;11.448;2022-09-17T00:08:02;10.80;99.90
19813;DHT22;10066;48.108;11.448;2022-09-17T00:10:29;10.90;99.90
19813;DHT22;10066;48.108;11.448;2022-09-17T00:12:56;10.90;99.90
19813;DHT22;10066;48.108;11.448;2022-09-17T00:15:26;11.00;99.90
19813;DHT22;10066;48.108;11.448;2022-09-17T00:17:53;11.00;99.90
19813;DHT22;10066;48.108;11.448;2022-09-17T00:20:22;10.90;99.90
19813;DHT22;10066;48.108;11.448;2022-09-17T00:22:49;10.90;99.90
19813;DHT22;10066;48.108;11.448;2022-09-17T00:25:16;10.90;99.90
19813;DHT22;10066;48.108;11.448;2022-09-17T00:27:44;10.80;99.90
19813;DHT22;10066;48.108;11.448;2022-09-17T00:30:11;10.80;99.90
19813;DHT22;10066;48.108;11.448;2022-09-17T00:32:40;10.70;99.90
19813;DHT22;10066;48.108;11.448;2022-09-17T00:35:08;10.70;99.90
19813;DHT22;10066;48.108;11.448;2022-09-17T00:37:35;10.70;99.90
19813;DHT22;10066;48.108;11.448;2022-09-17T00:40:03;10.70;99.90
19813;DHT22;10066;48.108;11.448;2022-09-17T00:42:30;10.60;99.90
19813;DHT22;10066;48.108;11.448;2022-09-17T00:44:58;10.60;99.90
19813;DHT22;10066;48.108;11.448;2022-09-17T00:47:29;10.60;99.90
19813;DHT22;10066;48.108;11.448;2022-09-17T00:50:02;10.60;99.90
19813;DHT22;10066;48.108;11.448;2022-09-17T00:52:33;10.60;99.90
19813;DHT22;10066;48.108;11.448;2022-09-17T00:55:06;10.60;99.90
19813;DHT22;10066;48.108;11.448;2022-09-17T00:57:37;10.50;99.90
19813;DHT22;10066;48.108;11.448;2022-09-17T01:00:06;10.40;99.90
19813;DHT22;10066;48.108;11.448;2022-09-17T01:02:34;10.40;99.90
19813;DHT22;10066;48.108;11.448;2022-09-17T01:05:03;10.40;99.90
19813;DHT22;10066;48.108;11.448;2022-09-17T01:07:50;10.40;99.90
19813;DHT22;10066;48.108;11.448;2022-09-17T01:10:34;10.40;99.90
19813;DHT22;10066;48.108;11.448;2022-09-17T01:13:10;10.40;99.90
19813;DHT22;10066;48.108;11.448;2022-09-17T01:15:43;10.40;99.90
19813;DHT22;10066;48.108;11.448;2022-09-17T01:18:26;10.50;99.90
19813;DHT22;10066;48.108;11.448;2022-09-17T01:21:40;10.40;99.90
19813;DHT22;10066;48.108;11.448;2022-09-17T01:24:47;10.40;99.90
19813;DHT22;10066;48.108;11.448;2022-09-17T01:27:55;10.40;99.90
19813;DHT22;10066;48.108;11.448;2022-09-17T01:33:32;10.30;99.90
19813;DHT22;10066;48.108;11.448;2022-09-17T01:36:11;10.20;99.90
19813;DHT22;10066;48.108;11.448;2022-09-17T01:38:50;10.20;99.90
19813;DHT22;10066;48.108;11.448;2022-09-17T01:41:28;10.30;99.90
19813;DHT22;10066;48.108;11.448;2022-09-17T01:44:01;10.30;99.90
19813;DHT22;10066;48.108;11.448;2022-09-17T01:46:31;10.20;99.90
19813;DHT22;10066;48.108;11.448;2022-09-17T01:49:04;10.30;99.90
19813;DHT22;10066;48.108;11.448;2022-09-17T01:51:35;10.20;99.90
19813;DHT22;10066;48.108;11.448;2022-09-17T01:54:06;10.20;99.90
19813;DHT22;10066;48.108;11.448;2022-09-17T01:56:39;10.10;99.90
19813;DHT22;10066;48.108;11.448;2022-09-17T01:59:10;10.10;99.90
19813;DHT22;10066;48.108;11.448;2022-09-17T02:04:20;10.00;99.90
19813;DHT22;10066;48.108;11.448;2022-09-17T02:06:54;10.00;99.90
19813;DHT22;10066;48.108;11.448;2022-09-17T02:09:25;10.00;99.90
19813;DHT22;10066;48.108;11.448;2022-09-17T02:11:56;10.00;99.90
19813;DHT22;10066;48.108;11.448;2022-09-17T02:14:28;10.00;99.90
19813;DHT22;10066;48.108;11.448;2022-09-17T02:17:00;10.00;99.90
19813;DHT22;10066;48.108;11.448;2022-09-17T02:19:33;10.00;99.90
19813;DHT22;10066;48.108;11.448;2022-09-17T02:22:05;10.00;99.90
19813;DHT22;10066;48.108;11.448;2022-09-17T02:24:41;10.10;99.90
19813;DHT22;10066;48.108;11.448;2022-09-17T02:27:15;10.00;99.90
19813;DHT22;10066;48.108;11.448;2022-09-17T02:29:44;10.00;99.90
19813;DHT22;10066;48.108;11.448;2022-09-17T02:32:12;10.00;99.90
19813;DHT22;10066;48.108;11.448;2022-09-17T02:34:41;10.00;99.90
19813;DHT22;10066;48.108;11.448;2022-09-17T02:37:08;10.00;99.90
19813;DHT22;10066;48.108;11.448;2022-09-17T02:39:35;9.90;99.90
19813;DHT22;10066;48.108;11.448;2022-09-17T02:42:07;9.90;99.90
19813;DHT22;10066;48.108;11.448;2022-09-17T02:44:47;9.90;99.90
19813;DHT22;10066;48.108;11.448;2022-09-17T02:47:33;9.90;99.90
19813;DHT22;10066;48.108;11.448;2022-09-17T02:50:14;9.90;99.90
19813;DHT22;10066;48.108;11.448;2022-09-17T02:52:52;9.80;99.90
19813;DHT22;10066;48.108;11.448;2022-09-17T02:55:30;9.80;99.90
19813;DHT22;10066;48.108;11.448;2022-09-17T02:58:06;9.70;99.90
19813;DHT22;10066;48.108;11.448;2022-09-17T03:00:37;9.60;99.90
19813;DHT22;10066;48.108;11.448;2022-09-17T03:03:07;9.60;99.90
19813;DHT22;10066;48.108;11.448;2022-09-17T03:05:38;9.70;99.90
19813;DHT22;10066;48.108;11.448;2022-09-17T03:08:08;9.60;99.90
19813;DHT22;10066;48.108;11.448;2022-09-17T03:10:39;9.60;99.90
19813;DHT22;10066;48.108;11.448;2022-09-17T03:13:06;9.50;99.90
19813;DHT22;10066;48.108;11.448;2022-09-17T03:15:33;9.40;99.90
19813;DHT22;10066;48.108;11.448;2022-09-17T03:18:00;9.40;99.90
19813;DHT22;10066;48.108;11.448;2022-09-17T03:20:27;9.30;99.90
19813;DHT22;10066;48.108;11.448;2022-09-17T03:22:55;9.30;99.90
19813;DHT22;10066;48.108;11.448;2022-09-17T03:25:22;9.30;99.90
19813;DHT22;10066;48.108;11.448;2022-09-17T03:27:49;9.30;99.90
19813;DHT22;10066;48.108;11.448;2022-09-17T03:30:17;9.30;99.90
19813;DHT22;10066;48.108;11.448;2022-09-17T03:32:45;9.30;99.90
19813;DHT22;10066;48.108;11.448;2022-09-17T03:35:12;9.20;99.90
19813;DHT22;10066;48.108;11.448;2022-09-17T03:37:39;9.20;99.90
19813;DHT22;10066;48.108;11.448;2022-09-17T03:40:09;9.20;99.90
19813;DHT22;10066;48.108;11.448;2022-09-17T03:42:36;9.10;99.90
19813;DHT22;10066;48.108;11.448;2022-09-17T03:45:03;9.10;99.90
19813;DHT22;10066;48.108;11.448;2022-09-17T03:47:30;9.10;99.90
19813;DHT22;10066;48.108;11.448;2022-09-17T03:49:58;9.10;99.90
19813;DHT22;10066;48.108;11.448;2022-09-17T03:52:25;9.10;99.90
19813;DHT22;10066;48.108;11.448;2022-09-17T03:54:51;9.10;99.90
19813;DHT22;10066;48.108;11.448;2022-09-17T03:57:20;9.10;99.90
19813;DHT22;10066;48.108;11.448;2022-09-17T03:59:47;9.20;99.90
19813;DHT22;10066;48.108;11.448;2022-09-17T04:02:14;9.20;99.90
19813;DHT22;10066;48.108;11.448;2022-09-17T04:04:42;9.10;99.90
19813;DHT22;10066;48.108;11.448;2022-09-17T04:07:09;9.10;99.90
19813;DHT22;10066;48.108;11.448;2022-09-17T04:09:36;9.10;99.90
19813;DHT22;10066;48.108;11.448;2022-09-17T04:12:03;9.00;99.90
19813;DHT22;10066;48.108;11.448;2022-09-17T04:14:31;8.90;99.90
19813;DHT22;10066;48.108;11.448;2022-09-17T04:16:58;8.90;99.90
19813;DHT22;10066;48.108;11.448;2022-09-17T04:19:25;8.90;99.90
19813;DHT22;10066;48.108;11.448;2022-09-17T04:21:53;8.90;99.90
19813;DHT22;10066;48.108;11.448;2022-09-17T04:24:19;8.90;99.90
19813;DHT22;10066;48.108;11.448;2022-09-17T04:26:46;8.90;99.90
19813;DHT22;10066;48.108;11.448;2022-09-17T04:29:13;8.90;99.90
19813;DHT22;10066;48.108;11.448;2022-09-17T04:31:43;8.80;99.90
19813;DHT22;10066;48.108;11.448;2022-09-17T04:34:10;8.70;99.90
19813;DHT22;10066;48.108;11.448;2022-09-17T04:36:37;8.80;99.90
19813;DHT22;10066;48.108;11.448;2022-09-17T04:39:04;8.80;99.90
19813;DHT22;10066;48.108;11.448;2022-09-17T04:41:31;8.80;99.90
19813;DHT22;10066;48.108;11.448;2022-09-17T04:43:58;8.90;99.90
19813;DHT22;10066;48.108;11.448;2022-09-17T04:46:25;9.00;99.90
19813;DHT22;10066;48.108;11.448;2022-09-17T04:48:53;9.10;99.90
19813;DHT22;10066;48.108;11.448;2022-09-17T04:51:21;9.20;99.90
19813;DHT22;10066;48.108;11.448;2022-09-17T04:53:48;9.40;99.90
19813;DHT22;10066;48.108;11.448;2022-09-17T04:56:15;9.50;99.90
19813;DHT22;10066;48.108;11.448;2022-09-17T04:58:42;9.50;99.90
19813;DHT22;10066;48.108;11.448;2022-09-17T05:01:09;9.60;99.90
19813;DHT22;10066;48.108;11.448;2022-09-17T05:03:38;9.60;99.90
19813;DHT22;10066;48.108;11.448;2022-09-17T05:06:07;9.70;99.90
19813;DHT22;10066;48.108;11.448;2022-09-17T05:08:34;9.70;99.90
19813;DHT22;10066;48.108;11.448;2022-09-17T05:11:01;9.80;99.90
19813;DHT22;10066;48.108;11.448;2022-09-17T05:13:28;9.80;99.90
19813;DHT22;10066;48.108;11.448;2022-09-17T05:15:55;9.90;99.90
19813;DHT22;10066;48.108;11.448;2022-09-17T05:18:22;10.00;99.90
19813;DHT22;10066;48.108;11.448;2022-09-17T05:20:49;10.00;99.90
19813;DHT22;10066;48.108;11.448;2022-09-17T05:23:18;10.00;99.90
19813;DHT22;10066;48.108;11.448;2022-09-17T05:25:45;10.00;99.90
19813;DHT22;10066;48.108;11.448;2022-09-17T05:28:12;10.00;99.90
19813;DHT22;10066;48.108;11.448;2022-09-17T05:30:39;10.00;99.90
19813;DHT22;10066;48.108;11.448;2022-09-17T05:33:07;9.90;99.90
19813;DHT22;10066;48.108;11.448;2022-09-17T05:35:34;10.00;99.90
19813;DHT22;10066;48.108;11.448;2022-09-17T05:38:03;10.00;99.90
19813;DHT22;10066;48.108;11.448;2022-09-17T05:40:31;10.00;99.90
19813;DHT22;10066;48.108;11.448;2022-09-17T05:43:01;10.00;99.90
19813;DHT22;10066;48.108;11.448;2022-09-17T05:45:29;9.90;99.90
19813;DHT22;10066;48.108;11.448;2022-09-17T05:47:56;9.90;99.90
19813;DHT22;10066;48.108;11.448;2022-09-17T05:50:24;10.00;99.90
19813;DHT22;10066;48.108;11.448;2022-09-17T05:52:52;10.00;99.90
19813;DHT22;10066;48.108;11.448;2022-09-17T05:55:20;10.10;99.90
19813;DHT22;10066;48.108;11.448;2022-09-17T05:57:49;9.90;99.90
19813;DHT22;10066;48.108;11.448;2022-09-17T06:00:17;9.90;99.90
19813;DHT22;10066;48.108;11.448;2022-09-17T06:02:44;9.80;99.90
19813;DHT22;10066;48.108;11.448;2022-09-17T06:05:11;9.80;99.90
19813;DHT22;10066;48.108;11.448;2022-09-17T06:07:38;9.70;99.90
19813;DHT22;10066;48.108;11.448;2022-09-17T06:10:06;9.70;99.90
19813;DHT22;10066;48.108;11.448;2022-09-17T06:12:34;9.70;99.90
19813;DHT22;10066;48.108;11.448;2022-09-17T06:15:05;9.80;99.90
19813;DHT22;10066;48.108;11.448;2022-09-17T06:17:34;9.80;99.90
19813;DHT22;10066;48.108;11.448;2022-09-17T06:20:02;9.90;99.90
19813;DHT22;10066;48.108;11.448;2022-09-17T06:22:30;9.90;99.90
19813;DHT22;10066;48.108;11.448;2022-09-17T06:24:57;9.90;99.90
19813;DHT22;10066;48.108;11.448;2022-09-17T06:27:29;9.90;99.90
19813;DHT22;10066;48.108;11.448;2022-09-17T06:29:56;10.00;99.90
19813;DHT22;10066;48.108;11.448;2022-09-17T06:32:26;10.00;99.90
19813;DHT22;10066;48.108;11.448;2022-09-17T06:34:53;10.00;99.90
19813;DHT22;10066;48.108;11.448;2022-09-17T06:37:26;10.00;99.90
19813;DHT22;10066;48.108;11.448;2022-09-17T06:39:53;9.90;99.90
19813;DHT22;10066;48.108;11.448;2022-09-17T06:42:21;9.90;99.90
19813;DHT22;10066;48.108;11.448;2022-09-17T06:44:48;9.80;99.90
19813;DHT22;10066;48.108;11.448;2022-09-17T06:47:15;9.70;99.90
19813;DHT22;10066;48.108;11.448;2022-09-17T06:49:43;9.70;99.90
19813;DHT22;10066;48.108;11.448;2022-09-17T06:52:11;9.70;99.90
19813;DHT22;10066;48.108;11.448;2022-09-17T06:54:38;9.70;99.90
19813;DHT22;10066;48.108;11.448;2022-09-17T06:57:05;9.70;99.90
19813;DHT22;10066;48.108;11.448;2022-09-17T06:59:31;9.70;99.90
19813;DHT22;10066;48.108;11.448;2022-09-17T07:01:59;9.70;99.90
19813;DHT22;10066;48.108;11.448;2022-09-17T07:04:26;9.70;99.90
19813;DHT22;10066;48.108;11.448;2022-09-17T07:06:58;9.80;99.90
19813;DHT22;10066;48.108;11.448;2022-09-17T07:09:25;9.80;99.90
19813;DHT22;10066;48.108;11.448;2022-09-17T07:11:52;9.70;99.90
19813;DHT22;10066;48.108;11.448;2022-09-17T07:14:19;9.70;99.90
19813;DHT22;10066;48.108;11.448;2022-09-17T07:16:46;9.60;99.90
19813;DHT22;10066;48.108;11.448;2022-09-17T07:19:13;9.60;99.90
19813;DHT22;10066;48.108;11.448;2022-09-17T07:21:40;9.50;99.90
19813;DHT22;10066;48.108;11.448;2022-09-17T07:24:08;9.50;99.90
19813;DHT22;10066;48.108;11.448;2022-09-17T07:26:36;9.50;99.90
19813;DHT22;10066;48.108;11.448;2022-09-17T07:29:03;9.70;99.90
19813;DHT22;10066;48.108;11.448;2022-09-17T07:31:30;9.80;99.90
19813;DHT22;10066;48.108;11.448;2022-09-17T07:33:57;9.90;99.90
19813;DHT22;10066;48.108;11.448;2022-09-17T07:36:24;10.10;99.90
19813;DHT22;10066;48.108;11.448;2022-09-17T07:38:52;10.20;99.90
19813;DHT22;10066;48.108;11.448;2022-09-17T07:41:20;10.30;99.90
19813;DHT22;10066;48.108;11.448;2022-09-17T07:43:51;10.40;99.90
19813;DHT22;10066;48.108;11.448;2022-09-17T07:46:20;10.50;99.90
19813;DHT22;10066;48.108;11.448;2022-09-17T07:48:48;10.60;99.90
19813;DHT22;10066;48.108;11.448;2022-09-17T07:51:16;10.80;99.90
19813;DHT22;10066;48.108;11.448;2022-09-17T07:53:43;10.90;99.90
19813;DHT22;10066;48.108;11.448;2022-09-17T07:56:13;10.80;99.90
19813;DHT22;10066;48.108;11.448;2022-09-17T07:58:42;10.80;99.90
19813;DHT22;10066;48.108;11.448;2022-09-17T08:01:10;10.90;99.90
19813;DHT22;10066;48.108;11.448;2022-09-17T08:03:39;10.90;99.90
19813;DHT22;10066;48.108;11.448;2022-09-17T08:06:09;10.90;99.90
19813;DHT22;10066;48.108;11.448;2022-09-17T08:08:39;10.80;99.90
19813;DHT22;10066;48.108;11.448;2022-09-17T08:11:08;10.70;99.90
19813;DHT22;10066;48.108;11.448;2022-09-17T08:13:36;10.70;99.90
19813;DHT22;10066;48.108;11.448;2022-09-17T08:16:05;10.70;99.90
19813;DHT22;10066;48.108;11.448;2022-09-17T08:18:33;10.70;99.90
19813;DHT22;10066;48.108;11.448;2022-09-17T08:21:01;10.80;99.90
19813;DHT22;10066;48.108;11.448;2022-09-17T08:23:29;10.80;99.90
19813;DHT22;10066;48.108;11.448;2022-09-17T08:25:57;10.70;99.90
19813;DHT22;10066;48.108;11.448;2022-09-17T08:28:27;10.80;99.90
19813;DHT22;10066;48.108;11.448;2022-09-17T08:30:58;10.80;99.90
19813;DHT22;10066;48.108;11.448;2022-09-17T08:33:29;10.90;99.90
19813;DHT22;10066;48.108;11.448;2022-09-17T08:35:56;11.10;99.90
19813;DHT22;10066;48.108;11.448;2022-09-17T08:38:24;11.20;99.90
19813;DHT22;10066;48.108;11.448;2022-09-17T08:40:59;11.40;99.90
19813;DHT22;10066;48.108;11.448;2022-09-17T08:43:30;11.40;99.90
19813;DHT22;10066;48.108;11.448;2022-09-17T08:45:58;11.40;99.90
19813;DHT22;10066;48.108;11.448;2022-09-17T08:48:33;11.40;99.90
19813;DHT22;10066;48.108;11.448;2022-09-17T08:51:02;11.40;99.90
19813;DHT22;10066;48.108;11.448;2022-09-17T08:53:45;11.30;99.90
19813;DHT22;10066;48.108;11.448;2022-09-17T08:56:18;11.20;99.90
19813;DHT22;10066;48.108;11.448;2022-09-17T08:59:17;11.30;99.90
19813;DHT22;10066;48.108;11.448;2022-09-17T09:01:54;11.30;99.90
19813;DHT22;10066;48.108;11.448;2022-09-17T09:04:45;11.30;99.90
19813;DHT22;10066;48.108;11.448;2022-09-17T09:07:18;11.30;99.90
19813;DHT22;10066;48.108;11.448;2022-09-17T09:09:50;11.30;99.90
19813;DHT22;10066;48.108;11.448;2022-09-17T09:12:23;11.40;99.90
19813;DHT22;10066;48.108;11.448;2022-09-17T09:14:55;11.40;99.90
19813;DHT22;10066;48.108;11.448;2022-09-17T09:17:28;11.40;99.90
19813;DHT22;10066;48.108;11.448;2022-09-17T09:19:59;11.40;99.90
19813;DHT22;10066;48.108;11.448;2022-09-17T09:22:38;11.40;99.90
19813;DHT22;10066;48.108;11.448;2022-09-17T09:25:21;11.30;99.90
19813;DHT22;10066;48.108;11.448;2022-09-17T09:28:16;11.40;99.90
19813;DHT22;10066;48.108;11.448;2022-09-17T09:30:54;11.30;99.90
19813;DHT22;10066;48.108;11.448;2022-09-17T09:33:26;11.20;99.90
19813;DHT22;10066;48.108;11.448;2022-09-17T09:35:57;11.20;99.90
19813;DHT22;10066;48.108;11.448;2022-09-17T09:38:31;11.20;99.90
19813;DHT22;10066;48.108;11.448;2022-09-17T09:41:05;11.20;99.90
19813;DHT22;10066;48.108;11.448;2022-09-17T09:43:39;11.20;99.90
19813;DHT22;10066;48.108;11.448;2022-09-17T09:46:18;10.90;99.90
19813;DHT22;10066;48.108;11.448;2022-09-17T09:48:55;10.90;99.90
19813;DHT22;10066;48.108;11.448;2022-09-17T09:51:34;10.80;99.90
19813;DHT22;10066;48.108;11.448;2022-09-17T09:54:16;10.80;99.90
19813;DHT22;10066;48.108;11.448;2022-09-17T09:56:54;10.80;99.90
19813;DHT22;10066;48.108;11.448;2022-09-17T09:59:23;10.80;99.90
19813;DHT22;10066;48.108;11.448;2022-09-17T10:01:50;10.80;99.90
19813;DHT22;10066;48.108;11.448;2022-09-17T10:04:19;11.00;99.90
19813;DHT22;10066;48.108;11.448;2022-09-17T10:06:50;11.00;99.90
19813;DHT22;10066;48.108;11.448;2022-09-17T10:09:20;11.00;99.90
19813;DHT22;10066;48.108;11.448;2022-09-17T10:12:05;11.00;99.90
19813;DHT22;10066;48.108;11.448;2022-09-17T10:14:41;10.90;99.90
19813;DHT22;10066;48.108;11.448;2022-09-17T10:17:17;10.60;99.90
19813;DHT22;10066;48.108;11.448;2022-09-17T10:22:23;10.20;99.90
19813;DHT22;10066;48.108;11.448;2022-09-17T10:24:53;10.00;99.90
19813;DHT22;10066;48.108;11.448;2022-09-17T10:27:22;9.70;99.90
19813;DHT22;10066;48.108;11.448;2022-09-17T10:29:54;9.50;99.90
19813;DHT22;10066;48.108;11.448;2022-09-17T10:32:22;9.30;99.90
19813;DHT22;10066;48.108;11.448;2022-09-17T10:34:59;9.20;99.90
19813;DHT22;10066;48.108;11.448;2022-09-17T10:37:42;9.30;99.90
19813;DHT22;10066;48.108;11.448;2022-09-17T10:40:25;9.30;99.90
19813;DHT22;10066;48.108;11.448;2022-09-17T10:43:19;9.10;99.90
19813;DHT22;10066;48.108;11.448;2022-09-17T10:45:55;9.00;99.90
19813;DHT22;10066;48.108;11.448;2022-09-17T10:48:25;9.00;99.90
19813;DHT22;10066;48.108;11.448;2022-09-17T10:50:55;9.00;99.90
19813;DHT22;10066;48.108;11.448;2022-09-17T10:53:25;9.10;99.90
19813;DHT22;10066;48.108;11.448;2022-09-17T10:56:00;9.20;99.90
19813;DHT22;10066;48.108;11.448;2022-09-17T10:58:41;9.30;99.90
19813;DHT22;10066;48.108;11.448;2022-09-17T11:01:21;9.40;99.90
19813;DHT22;10066;48.108;11.448;2022-09-17T11:04:12;9.40;99.90
19813;DHT22;10066;48.108;11.448;2022-09-17T11:07:08;9.40;99.90
19813;DHT22;10066;48.108;11.448;2022-09-17T11:09:49;9.40;99.90
19813;DHT22;10066;48.108;11.448;2022-09-17T11:12:30;9.40;99.90
19813;DHT22;10066;48.108;11.448;2022-09-17T11:15:12;9.40;99.90
19813;DHT22;10066;48.108;11.448;2022-09-17T11:17:54;9.50;99.90
19813;DHT22;10066;48.108;11.448;2022-09-17T11:20:36;9.50;99.90
19813;DHT22;10066;48.108;11.448;2022-09-17T11:23:23;9.60;99.90
19813;DHT22;10066;48.108;11.448;2022-09-17T11:25:54;9.80;99.90
19813;DHT22;10066;48.108;11.448;2022-09-17T11:28:41;9.80;99.90
19813;DHT22;10066;48.108;11.448;2022-09-17T11:31:20;9.90;99.90
19813;DHT22;10066;48.108;11.448;2022-09-17T11:34:16;9.80;99.90
19813;DHT22;10066;48.108;11.448;2022-09-17T11:36:49;9.80;99.90
19813;DHT22;10066;48.108;11.448;2022-09-17T11:39:21;9.70;99.90
19813;DHT22;10066;48.108;11.448;2022-09-17T11:41:53;9.70;99.90
19813;DHT22;10066;48.108;11.448;2022-09-17T11:44:24;9.70;99.90
19813;DHT22;10066;48.108;11.448;2022-09-17T11:46:55;9.60;99.90
19813;DHT22;10066;48.108;11.448;2022-09-17T11:49:28;9.40;99.90
19813;DHT22;10066;48.108;11.448;2022-09-17T11:52:01;9.20;99.90
19813;DHT22;10066;48.108;11.448;2022-09-17T11:54:32;9.10;99.90
19813;DHT22;10066;48.108;11.448;2022-09-17T11:57:10;9.10;99.90
19813;DHT22;10066;48.108;11.448;2022-09-17T11:59:41;9.10;99.90
19813;DHT22;10066;48.108;11.448;2022-09-17T12:02:18;9.20;99.90
19813;DHT22;10066;48.108;11.448;2022-09-17T12:04:54;9.30;99.90
19813;DHT22;10066;48.108;11.448;2022-09-17T12:07:43;9.40;99.90
19813;DHT22;10066;48.108;11.448;2022-09-17T12:10:32;9.50;99.90
19813;DHT22;10066;48.108;11.448;2022-09-17T12:13:13;9.60;99.90
19813;DHT22;10066;48.108;11.448;2022-09-17T12:15:45;9.70;99.90
19813;DHT22;10066;48.108;11.448;2022-09-17T12:18:23;9.70;99.90
19813;DHT22;10066;48.108;11.448;2022-09-17T12:20:56;9.70;99.90
19813;DHT22;10066;48.108;11.448;2022-09-17T12:23:30;9.70;99.90
19813;DHT22;10066;48.108;11.448;2022-09-17T12:26:07;9.70;99.90
19813;DHT22;10066;48.108;11.448;2022-09-17T12:28:45;9.60;99.90
19813;DHT22;10066;48.108;11.448;2022-09-17T12:31:22;9.50;99.90
19813;DHT22;10066;48.108;11.448;2022-09-17T12:33:56;9.30;99.90
19813;DHT22;10066;48.108;11.448;2022-09-17T12:36:36;9.30;99.90
19813;DHT22;10066;48.108;11.448;2022-09-17T12:39:43;9.30;99.90
19813;DHT22;10066;48.108;11.448;2022-09-17T12:42:25;9.30;99.90
19813;DHT22;10066;48.108;11.448;2022-09-17T12:45:11;9.40;99.90
19813;DHT22;10066;48.108;11.448;2022-09-17T12:48:13;9.50;99.90
19813;DHT22;10066;48.108;11.448;2022-09-17T12:50:52;9.60;99.90
19813;DHT22;10066;48.108;11.448;2022-09-17T12:53:25;9.60;99.90
19813;DHT22;10066;48.108;11.448;2022-09-17T12:56:13;9.60;99.90
19813;DHT22;10066;48.108;11.448;2022-09-17T12:58:59;9.50;99.90
19813;DHT22;10066;48.108;11.448;2022-09-17T13:01:34;9.60;99.90
19813;DHT22;10066;48.108;11.448;2022-09-17T13:04:22;9.70;99.90
19813;DHT22;10066;48.108;11.448;2022-09-17T13:07:23;9.90;99.90
19813;DHT22;10066;48.108;11.448;2022-09-17T13:10:10;9.90;99.90
19813;DHT22;10066;48.108;11.448;2022-09-17T13:12:43;10.00;99.90
19813;DHT22;10066;48.108;11.448;2022-09-17T13:15:41;9.90;99.90
19813;DHT22;10066;48.108;11.448;2022-09-17T13:18:18;9.90;99.90
19813;DHT22;10066;48.108;11.448;2022-09-17T13:20:58;9.90;99.90
19813;DHT22;10066;48.108;11.448;2022-09-17T13:23:37;9.90;99.90
19813;DHT22;10066;48.108;11.448;2022-09-17T13:26:06;9.90;99.90
19813;DHT22;10066;48.108;11.448;2022-09-17T13:28:39;9.90;99.90
19813;DHT22;10066;48.108;11.448;2022-09-17T13:31:06;9.80;99.90
19813;DHT22;10066;48.108;11.448;2022-09-17T13:33:55;9.80;99.90
19813;DHT22;10066;48.108;11.448;2022-09-17T13:36:44;9.90;99.90
19813;DHT22;10066;48.108;11.448;2022-09-17T13:39:34;9.90;99.90
19813;DHT22;10066;48.108;11.448;2022-09-17T13:42:06;9.90;99.90
19813;DHT22;10066;48.108;11.448;2022-09-17T13:44:35;9.90;99.90
19813;DHT22;10066;48.108;11.448;2022-09-17T13:47:16;9.80;99.90
19813;DHT22;10066;48.108;11.448;2022-09-17T13:49:53;9.80;99.90
19813;DHT22;10066;48.108;11.448;2022-09-17T13:52:37;9.70;99.90
19813;DHT22;10066;48.108;11.448;2022-09-17T13:55:07;9.80;99.90
19813;DHT22;10066;48.108;11.448;2022-09-17T13:57:47;9.80;99.90
19813;DHT22;10066;48.108;11.448;2022-09-17T14:00:46;9.80;99.90
19813;DHT22;10066;48.108;11.448;2022-09-17T14:03:45;9.90;99.90
19813;DHT22;10066;48.108;11.448;2022-09-17T14:06:48;10.00;99.90
19813;DHT22;10066;48.108;11.448;2022-09-17T14:09:39;10.10;99.90
19813;DHT22;10066;48.108;11.448;2022-09-17T14:18:54;10.50;99.90
19813;DHT22;10066;48.108;11.448;2022-09-17T14:21:26;10.50;99.90
19813;DHT22;10066;48.108;11.448;2022-09-17T14:23:57;10.60;99.90
19813;DHT22;10066;48.108;11.448;2022-09-17T14:26:48;10.70;99.90
19813;DHT22;10066;48.108;11.448;2022-09-17T14:32:23;10.80;99.90
19813;DHT22;10066;48.108;11.448;2022-09-17T14:34:57;10.90;99.90
19813;DHT22;10066;48.108;11.448;2022-09-17T14:37:24;10.90;99.90
19813;DHT22;10066;48.108;11.448;2022-09-17T14:39:53;10.90;99.90
19813;DHT22;10066;48.108;11.448;2022-09-17T14:42:23;10.90;99.90
19813;DHT22;10066;48.108;11.448;2022-09-17T14:44:56;11.00;99.90
19813;DHT22;10066;48.108;11.448;2022-09-17T14:47:24;11.00;99.90
19813;DHT22;10066;48.108;11.448;2022-09-17T14:49:53;11.00;99.90
19813;DHT22;10066;48.108;11.448;2022-09-17T14:52:25;11.10;99.90
19813;DHT22;10066;48.108;11.448;2022-09-17T14:55:14;11.10;99.90
19813;DHT22;10066;48.108;11.448;2022-09-17T14:57:43;11.00;99.90
19813;DHT22;10066;48.108;11.448;2022-09-17T15:00:17;11.00;99.90
19813;DHT22;10066;48.108;11.448;2022-09-17T15:02:49;10.90;99.90
19813;DHT22;10066;48.108;11.448;2022-09-17T15:05:25;10.90;99.90
19813;DHT22;10066;48.108;11.448;2022-09-17T15:08:04;10.80;99.90
19813;DHT22;10066;48.108;11.448;2022-09-17T15:10:35;10.80;99.90
19813;DHT22;10066;48.108;11.448;2022-09-17T15:13:11;10.80;99.90
19813;DHT22;10066;48.108;11.448;2022-09-17T15:15:39;10.70;99.90
19813;DHT22;10066;48.108;11.448;2022-09-17T15:18:17;10.70;99.90
19813;DHT22;10066;48.108;11.448;2022-09-17T15:20:46;10.60;99.90
19813;DHT22;10066;48.108;11.448;2022-09-17T15:23:17;10.50;99.90
19813;DHT22;10066;48.108;11.448;2022-09-17T15:25:49;10.50;99.90
19813;DHT22;10066;48.108;11.448;2022-09-17T15:28:30;10.50;99.90
19813;DHT22;10066;48.108;11.448;2022-09-17T15:30:59;10.40;99.90
19813;DHT22;10066;48.108;11.448;2022-09-17T15:33:28;10.40;99.90
19813;DHT22;10066;48.108;11.448;2022-09-17T15:36:00;10.40;99.90
19813;DHT22;10066;48.108;11.448;2022-09-17T15:38:32;10.40;99.90
19813;DHT22;10066;48.108;11.448;2022-09-17T15:41:24;10.30;99.90
19813;DHT22;10066;48.108;11.448;2022-09-17T15:43:52;10.30;99.90
19813;DHT22;10066;48.108;11.448;2022-09-17T15:46:22;10.30;99.90
19813;DHT22;10066;48.108;11.448;2022-09-17T15:48:52;10.30;99.90
19813;DHT22;10066;48.108;11.448;2022-09-17T15:51:23;10.30;99.90
19813;DHT22;10066;48.108;11.448;2022-09-17T15:53:53;10.20;99.90
19813;DHT22;10066;48.108;11.448;2022-09-17T15:56:24;10.20;99.90
19813;DHT22;10066;48.108;11.448;2022-09-17T15:58:55;10.10;99.90
19813;DHT22;10066;48.108;11.448;2022-09-17T16:04:20;10.10;99.90
19813;DHT22;10066;48.108;11.448;2022-09-17T16:06:52;10.10;99.90
19813;DHT22;10066;48.108;11.448;2022-09-17T16:09:44;10.10;99.90
19813;DHT22;10066;48.108;11.448;2022-09-17T16:12:16;10.00;99.90
19813;DHT22;10066;48.108;11.448;2022-09-17T16:14:47;10.10;99.90
19813;DHT22;10066;48.108;11.448;2022-09-17T16:17:31;10.10;99.90
19813;DHT22;10066;48.108;11.448;2022-09-17T16:20:12;10.10;99.90